Time;durP1;ratioP1;P1;durP2;ratioP2;P2;SDS_P1;SDS_P2;PMS_P1;PMS_P2;Temp;Humidity;BMP_temperature;BMP_pressure;BME280_temperature;BME280_humidity;BME280_pressure;Samples;Min_cycle;Max_cycle;Signal;HPM_P1;HPM_P2
2022/01/28 00:01:17;;;;;;;8.70;7.00;;;3.50;99.90;;;;;;5050785;28;20190;-76
2022/01/28 00:03:43;;;;;;;10.37;7.37;;;3.40;99.90;;;;;;5147937;22;20227;-76
2022/01/28 00:06:08;;;;;;;9.63;7.20;;;3.40;99.90;;;;;;5052850;28;20207;-76
2022/01/28 00:08:34;;;;;;;8.87;7.07;;;3.30;99.90;;;;;;5054976;28;20218;-76
2022/01/28 00:11:00;;;;;;;10.17;7.17;;;3.20;99.90;;;;;;5055319;28;20214;-75
2022/01/28 00:18:42;;;;;;;8.90;7.13;;;3.20;99.90;;;;;;5054915;28;20225;-74
2022/01/28 00:36:29;;;;;;;11.20;7.23;;;3.20;99.90;;;;;;5054834;28;20232;-74
2022/01/28 00:38:00;;;;;;;10.90;6.80;;;3.30;99.90;;;;;;5054747;28;20233;-74
2022/01/28 00:40:23;;;;;;;7.87;5.87;;;3.30;99.90;;;;;;5054248;28;20275;-74
2022/01/28 00:42:48;;;;;;;9.07;6.70;;;3.30;99.90;;;;;;5054368;28;20265;-74
2022/01/28 00:45:14;;;;;;;6.73;5.90;;;3.40;99.90;;;;;;5053912;28;20206;-75
2022/01/28 00:47:39;;;;;;;7.67;5.90;;;3.40;99.90;;;;;;5054373;28;20175;-75
2022/01/28 00:50:05;;;;;;;10.80;6.30;;;3.40;99.90;;;;;;5054188;28;20211;-73
2022/01/28 00:52:31;;;;;;;9.50;6.13;;;3.40;99.90;;;;;;5054430;28;20183;-73
2022/01/28 00:54:57;;;;;;;8.90;6.43;;;3.40;99.90;;;;;;5053422;28;20709;-75
2022/01/28 00:57:22;;;;;;;9.57;6.60;;;3.30;99.90;;;;;;5054059;28;20186;-75
2022/01/28 00:59:48;;;;;;;9.70;6.33;;;3.20;99.90;;;;;;5054213;28;20285;-75
2022/01/28 01:02:13;;;;;;;8.03;5.90;;;3.10;99.90;;;;;;5054050;28;20182;-75
2022/01/28 01:04:40;;;;;;;7.40;6.03;;;3.10;99.90;;;;;;5053434;28;20193;-74
2022/01/28 01:07:08;;;;;;;11.10;6.77;;;3.10;99.90;;;;;;5053806;28;20206;-74
2022/01/28 01:09:33;;;;;;;10.27;6.60;;;3.10;99.90;;;;;;5053908;28;20225;-75
2022/01/28 01:11:59;;;;;;;7.20;6.17;;;3.10;99.90;;;;;;5054005;28;20175;-75
2022/01/28 01:14:25;;;;;;;8.77;6.20;;;3.10;99.90;;;;;;5053360;28;20584;-74
2022/01/28 01:17:07;;;;;;;12.23;6.90;;;3.10;99.90;;;;;;5052525;28;20203;-74
2022/01/28 01:19:38;;;;;;;9.40;6.27;;;3.00;99.90;;;;;;5035781;28;20212;-75
2022/01/28 01:22:04;;;;;;;9.00;6.63;;;3.00;99.90;;;;;;5053865;28;20171;-74
2022/01/28 01:24:36;;;;;;;12.87;6.83;;;2.90;99.90;;;;;;5053173;28;20182;-74
2022/01/28 01:27:02;;;;;;;9.57;6.53;;;2.90;99.90;;;;;;5053609;28;20198;-75
2022/01/28 01:29:27;;;;;;;8.50;6.20;;;2.80;99.90;;;;;;5053351;28;20219;-75
2022/01/28 01:32:01;;;;;;;9.30;7.00;;;2.90;99.90;;;;;;5053509;28;20171;-74
2022/01/28 01:34:27;;;;;;;10.43;7.07;;;2.80;99.90;;;;;;5053096;28;20187;-75
2022/01/28 01:36:52;;;;;;;9.10;7.20;;;2.90;99.90;;;;;;5053525;28;20693;-74
2022/01/28 01:39:23;;;;;;;9.47;6.43;;;2.90;99.90;;;;;;5053350;28;20179;-75
2022/01/28 01:41:57;;;;;;;9.07;6.33;;;2.90;99.90;;;;;;5053890;28;20179;-74
2022/01/28 01:52:37;;;;;;;8.27;6.47;;;2.50;99.90;;;;;;5053056;28;20170;-74
2022/01/28 01:55:02;;;;;;;9.23;6.07;;;2.50;99.90;;;;;;5052710;28;20203;-75
2022/01/28 01:57:30;;;;;;;11.80;6.33;;;2.60;99.90;;;;;;5053011;28;20171;-74
2022/01/28 01:59:55;;;;;;;8.50;6.00;;;2.60;99.90;;;;;;5053082;28;20254;-75
2022/01/28 02:02:21;;;;;;;8.43;6.13;;;2.60;99.90;;;;;;5052761;28;20591;-74
2022/01/28 02:04:46;;;;;;;7.27;6.23;;;2.60;99.90;;;;;;5052160;28;20691;-75
2022/01/28 02:07:15;;;;;;;7.30;5.57;;;2.60;99.90;;;;;;5052357;28;20624;-75
2022/01/28 02:09:41;;;;;;;8.10;6.30;;;2.50;99.90;;;;;;5052857;28;20225;-74
2022/01/28 02:12:07;;;;;;;7.90;5.57;;;2.50;99.90;;;;;;5053046;28;20431;-74
2022/01/28 02:14:33;;;;;;;10.07;6.97;;;2.60;99.90;;;;;;5052102;28;20179;-75
2022/01/28 02:16:59;;;;;;;8.23;6.27;;;2.60;99.90;;;;;;5052587;28;20591;-74
2022/01/28 02:19:24;;;;;;;10.40;6.23;;;2.60;99.90;;;;;;5052472;28;20183;-74
2022/01/28 02:21:52;;;;;;;7.43;6.00;;;2.60;99.90;;;;;;5052945;28;20262;-74
2022/01/28 02:24:25;;;;;;;8.90;6.10;;;2.60;99.90;;;;;;5052506;28;20210;-74
2022/01/28 02:26:51;;;;;;;7.23;5.93;;;2.90;99.90;;;;;;5052524;28;20195;-75
2022/01/28 02:29:26;;;;;;;7.40;5.77;;;2.80;99.90;;;;;;5051985;28;20203;-73
2022/01/28 02:31:52;;;;;;;8.97;5.80;;;2.80;99.90;;;;;;5052392;28;20281;-75
2022/01/28 02:34:18;;;;;;;8.70;6.67;;;2.80;99.90;;;;;;5052002;28;20269;-74
2022/01/28 02:36:43;;;;;;;8.33;5.67;;;2.70;99.90;;;;;;5052132;28;20234;-74
2022/01/28 02:39:11;;;;;;;7.80;5.70;;;2.70;99.90;;;;;;5052312;28;20197;-74
2022/01/28 02:41:40;;;;;;;7.60;6.00;;;2.70;99.90;;;;;;5052196;28;20183;-74
2022/01/28 02:46:38;;;;;;;6.97;5.57;;;2.60;99.90;;;;;;5051594;28;20237;-74
2022/01/28 02:49:08;;;;;;;6.87;5.90;;;2.60;99.90;;;;;;5051841;28;20245;-73
2022/01/28 02:51:34;;;;;;;7.73;5.37;;;2.50;99.90;;;;;;5052063;28;20198;-74
2022/01/28 02:54:10;;;;;;;8.63;5.57;;;2.60;99.90;;;;;;5052167;28;20588;-74
2022/01/28 02:56:38;;;;;;;8.53;5.63;;;2.50;99.90;;;;;;5051499;28;20247;-74
2022/01/28 02:59:07;;;;;;;8.07;5.73;;;2.50;99.90;;;;;;5051791;28;20183;-74
2022/01/28 03:01:33;;;;;;;8.47;5.77;;;2.40;99.90;;;;;;5051670;28;20179;-75
2022/01/28 03:04:01;;;;;;;9.50;6.20;;;2.40;99.90;;;;;;5051664;28;20574;-74
2022/01/28 03:06:27;;;;;;;7.30;5.67;;;2.30;99.90;;;;;;5051096;28;20724;-74
2022/01/28 03:08:58;;;;;;;8.67;5.57;;;2.30;99.90;;;;;;5051620;28;20231;-74
2022/01/28 03:11:43;;;;;;;8.43;5.37;;;2.30;99.90;;;;;;5051540;28;20650;-74
2022/01/28 03:14:18;;;;;;;7.10;5.97;;;2.40;99.90;;;;;;5051421;28;20175;-74
2022/01/28 03:17:48;;;;;;;10.90;5.93;;;2.40;99.90;;;;;;5051452;28;20198;-75
2022/01/28 03:19:51;;;;;;;7.73;5.83;;;2.40;99.90;;;;;;5049066;28;20198;-74
2022/01/28 03:22:17;;;;;;;8.07;5.33;;;2.40;99.90;;;;;;5051415;28;20182;-74
2022/01/28 03:24:46;;;;;;;7.47;5.27;;;2.40;99.90;;;;;;5051139;28;20625;-74
2022/01/28 03:27:19;;;;;;;8.50;5.30;;;2.50;99.90;;;;;;5051557;28;20175;-74
2022/01/28 03:29:45;;;;;;;8.57;5.53;;;2.50;99.90;;;;;;5051406;28;20532;-74
2022/01/28 03:32:11;;;;;;;6.77;5.40;;;2.50;99.90;;;;;;5051384;28;20644;-74
2022/01/28 03:34:36;;;;;;;7.10;5.20;;;2.50;99.90;;;;;;5050792;28;20186;-74
2022/01/28 03:37:04;;;;;;;7.43;5.23;;;2.50;99.90;;;;;;5051089;28;20667;-75
2022/01/28 03:39:30;;;;;;;6.13;5.07;;;2.40;99.90;;;;;;5051430;28;20290;-74
2022/01/28 03:41:55;;;;;;;7.40;4.90;;;2.40;99.90;;;;;;5055060;28;20683;-74
2022/01/28 03:44:21;;;;;;;5.53;4.60;;;2.40;99.90;;;;;;5055138;28;20628;-74
2022/01/28 03:46:46;;;;;;;7.23;5.33;;;2.40;99.90;;;;;;5055110;28;20232;-74
2022/01/28 03:49:12;;;;;;;6.97;5.30;;;2.30;99.90;;;;;;5055124;28;20244;-74
2022/01/28 03:51:37;;;;;;;7.13;5.50;;;2.30;99.90;;;;;;5055139;28;20640;-74
2022/01/28 03:54:03;;;;;;;10.37;5.60;;;2.40;99.90;;;;;;5055496;28;20213;-74
2022/01/28 03:56:29;;;;;;;9.00;5.13;;;2.40;99.90;;;;;;5054690;28;20202;-73
2022/01/28 03:58:54;;;;;;;6.83;5.13;;;2.40;99.90;;;;;;5055235;28;20175;-73
2022/01/28 04:01:29;;;;;;;6.80;4.83;;;2.50;99.90;;;;;;5055190;28;20179;-75
2022/01/28 04:11:40;;;;;;;6.47;4.70;;;2.50;99.90;;;;;;5054944;28;20178;-74
2022/01/28 04:14:13;;;;;;;7.30;5.30;;;2.60;99.90;;;;;;5055262;28;20175;-74
2022/01/28 04:19:24;;;;;;;7.47;5.27;;;2.60;99.90;;;;;;5054958;28;20575;-74
2022/01/28 04:21:50;;;;;;;8.33;5.30;;;2.60;99.90;;;;;;5054669;28;20187;-75
2022/01/28 04:24:16;;;;;;;7.23;5.57;;;2.60;99.90;;;;;;5054345;28;20206;-75
2022/01/28 04:26:41;;;;;;;7.47;5.27;;;2.70;99.90;;;;;;5054219;28;20198;-74
2022/01/28 04:29:08;;;;;;;6.57;5.50;;;2.70;99.90;;;;;;5054367;28;20210;-74
2022/01/28 04:31:34;;;;;;;8.37;5.20;;;2.70;99.90;;;;;;5054477;28;20565;-75
2022/01/28 04:34:01;;;;;;;7.90;5.43;;;2.60;99.90;;;;;;5054468;28;20182;-75
2022/01/28 04:36:31;;;;;;;7.07;5.37;;;2.60;99.90;;;;;;5054146;28;20199;-75
2022/01/28 04:39:06;;;;;;;9.00;5.77;;;2.60;99.90;;;;;;5054556;28;20197;-76
2022/01/28 04:41:42;;;;;;;7.40;5.80;;;2.60;99.90;;;;;;5054242;28;20257;-73
2022/01/28 04:44:18;;;;;;;6.47;5.57;;;2.50;99.90;;;;;;5054519;28;20258;-74
2022/01/28 04:46:53;;;;;;;10.07;6.20;;;2.40;99.90;;;;;;5054123;28;20690;-73
2022/01/28 04:49:35;;;;;;;8.80;5.60;;;2.40;99.90;;;;;;5054328;28;20214;-73
2022/01/28 04:52:26;;;;;;;9.57;6.60;;;2.40;99.90;;;;;;5054131;28;20541;-72
2022/01/28 05:00:25;;;;;;;9.50;5.93;;;2.40;99.90;;;;;;5054030;28;20179;-74
2022/01/28 05:05:44;;;;;;;12.23;6.47;;;2.40;99.90;;;;;;5053262;28;20213;-74
2022/01/28 05:11:12;;;;;;;8.70;6.53;;;2.40;99.90;;;;;;5054116;28;20190;-73
2022/01/28 05:26:57;;;;;;;10.60;6.40;;;2.00;99.90;;;;;;5053526;28;20499;-73
2022/01/28 05:29:23;;;;;;;9.33;6.30;;;1.90;99.90;;;;;;5053745;28;20218;-74
2022/01/28 05:31:48;;;;;;;15.17;7.43;;;1.80;99.90;;;;;;5053513;28;20550;-73
2022/01/28 05:34:15;;;;;;;8.97;6.70;;;1.70;99.90;;;;;;5053284;28;20187;-74
2022/01/28 05:36:40;;;;;;;8.87;6.17;;;1.80;99.90;;;;;;5053014;28;20206;-74
2022/01/28 05:39:06;;;;;;;11.23;7.20;;;1.70;99.90;;;;;;5053473;28;20179;-73
2022/01/28 05:41:32;;;;;;;10.27;6.70;;;1.70;99.90;;;;;;5053164;28;20261;-74
2022/01/28 05:44:00;;;;;;;11.00;6.30;;;1.60;99.90;;;;;;5053123;28;20191;-74
2022/01/28 05:46:28;;;;;;;13.47;6.20;;;1.60;99.90;;;;;;5052565;28;20704;-74
2022/01/28 05:48:53;;;;;;;10.57;6.73;;;1.50;99.90;;;;;;5053096;28;20233;-73
2022/01/28 05:51:19;;;;;;;16.43;7.00;;;1.50;99.90;;;;;;5052983;28;20262;-74
2022/01/28 05:53:44;;;;;;;9.73;7.33;;;1.50;99.90;;;;;;5053032;28;20178;-73
2022/01/28 05:56:10;;;;;;;11.77;6.80;;;1.50;99.90;;;;;;5052220;28;20191;-73
2022/01/28 05:58:36;;;;;;;10.73;6.53;;;1.40;99.90;;;;;;5052811;28;20194;-74
2022/01/28 06:01:01;;;;;;;11.40;8.63;;;1.40;99.90;;;;;;5053078;28;20642;-74
2022/01/28 06:03:27;;;;;;;15.17;7.40;;;1.40;99.90;;;;;;5052521;28;20187;-73
2022/01/28 06:05:52;;;;;;;13.10;8.27;;;1.40;99.90;;;;;;5052296;28;20561;-73
2022/01/28 06:08:18;;;;;;;8.40;6.23;;;1.40;99.90;;;;;;5052649;28;20206;-73
2022/01/28 06:10:43;;;;;;;10.30;6.83;;;1.30;99.90;;;;;;5052643;28;20178;-73
2022/01/28 06:13:11;;;;;;;10.73;6.40;;;1.30;99.90;;;;;;5052477;28;20268;-74
2022/01/28 06:15:40;;;;;;;10.37;6.67;;;1.30;99.90;;;;;;5052120;28;20286;-74
2022/01/28 06:18:06;;;;;;;11.67;7.10;;;1.30;99.90;;;;;;5052803;28;20179;-74
2022/01/28 06:20:31;;;;;;;11.27;7.00;;;1.20;99.90;;;;;;5052318;28;20557;-73
2022/01/28 06:22:57;;;;;;;10.40;6.80;;;1.20;99.90;;;;;;5052505;28;20194;-74
2022/01/28 06:25:23;;;;;;;9.30;6.93;;;1.10;99.90;;;;;;5051726;28;20560;-74
2022/01/28 06:27:48;;;;;;;9.97;7.00;;;1.10;99.90;;;;;;5034492;28;20172;-74
2022/01/28 06:30:16;;;;;;;11.67;7.40;;;1.20;99.90;;;;;;5052386;28;20226;-76
2022/01/28 06:32:42;;;;;;;11.33;8.20;;;1.10;99.90;;;;;;5052037;28;20577;-73
2022/01/28 06:35:08;;;;;;;11.37;6.83;;;1.10;99.90;;;;;;5051598;28;20195;-74
2022/01/28 06:37:38;;;;;;;14.10;7.77;;;1.10;99.90;;;;;;5052135;28;20628;-73
2022/01/28 06:40:09;;;;;;;11.47;7.07;;;1.00;99.90;;;;;;5052011;28;20624;-74
2022/01/28 06:42:35;;;;;;;11.03;6.57;;;0.90;99.90;;;;;;5052271;28;20588;-74
2022/01/28 06:45:01;;;;;;;9.63;6.90;;;0.90;99.90;;;;;;5051392;28;20269;-73
2022/01/28 06:47:27;;;;;;;10.43;7.40;;;0.90;99.90;;;;;;5051713;28;20175;-74
2022/01/28 06:49:53;;;;;;;13.03;7.53;;;1.00;99.90;;;;;;5051925;28;20245;-74
2022/01/28 06:52:18;;;;;;;11.60;6.90;;;1.10;99.90;;;;;;5051747;28;20597;-74
2022/01/28 06:54:44;;;;;;;13.43;7.70;;;1.20;99.90;;;;;;5051046;28;20182;-73
2022/01/28 06:57:09;;;;;;;12.80;7.73;;;1.30;99.90;;;;;;5051894;28;20190;-74
2022/01/28 06:59:35;;;;;;;10.13;7.50;;;1.40;99.90;;;;;;5051539;28;20681;-74
2022/01/28 07:02:00;;;;;;;10.90;7.07;;;1.40;99.90;;;;;;5051507;28;20245;-73
2022/01/28 07:04:26;;;;;;;10.97;7.50;;;1.30;99.90;;;;;;5050184;28;20194;-74
2022/01/28 07:06:52;;;;;;;11.33;7.40;;;1.30;99.90;;;;;;5050624;28;20714;-74
2022/01/28 07:09:17;;;;;;;9.90;6.90;;;1.30;99.90;;;;;;5050860;28;20222;-74
2022/01/28 07:11:43;;;;;;;15.03;7.33;;;1.30;99.90;;;;;;5050979;28;20171;-74
2022/01/28 07:14:09;;;;;;;13.20;7.77;;;1.30;99.90;;;;;;5051143;28;20274;-74
2022/01/28 07:16:35;;;;;;;10.40;7.20;;;1.40;99.90;;;;;;5054039;28;20202;-75
2022/01/28 07:19:02;;;;;;;14.93;7.60;;;1.40;99.90;;;;;;5051817;28;20179;-73
2022/01/28 07:21:27;;;;;;;11.87;7.70;;;1.60;99.90;;;;;;5052484;28;20179;-73
2022/01/28 07:23:53;;;;;;;9.77;7.40;;;1.90;99.90;;;;;;5039767;28;20237;-74
2022/01/28 07:26:18;;;;;;;10.87;7.63;;;1.80;99.90;;;;;;5049424;28;20555;-73
2022/01/28 07:28:44;;;;;;;9.73;7.03;;;1.80;99.90;;;;;;5049948;28;20722;-74
2022/01/28 07:31:10;;;;;;;14.77;7.10;;;1.70;99.90;;;;;;5050212;28;20190;-73
2022/01/28 07:33:36;;;;;;;8.90;6.50;;;1.90;99.90;;;;;;5049336;28;20183;-74
2022/01/28 07:36:01;;;;;;;10.60;6.67;;;1.80;99.90;;;;;;5050210;28;20285;-74
2022/01/28 07:38:27;;;;;;;9.87;7.00;;;1.70;99.90;;;;;;5053163;28;20178;-74
2022/01/28 07:40:52;;;;;;;11.33;7.33;;;1.80;99.90;;;;;;5051668;28;20182;-73
2022/01/28 07:43:18;;;;;;;11.67;7.23;;;1.70;99.90;;;;;;5050977;28;20233;-73
2022/01/28 07:45:43;;;;;;;10.67;7.37;;;1.70;99.90;;;;;;5050512;28;20201;-73
2022/01/28 07:48:09;;;;;;;11.57;7.33;;;1.70;99.90;;;;;;5050633;28;20193;-73
2022/01/28 07:50:35;;;;;;;10.93;7.63;;;1.70;99.90;;;;;;5050830;28;20207;-74
2022/01/28 07:53:00;;;;;;;12.47;7.27;;;1.70;99.90;;;;;;5051067;28;20258;-75
2022/01/28 07:55:26;;;;;;;12.40;8.23;;;1.70;99.90;;;;;;5050741;28;20206;-74
2022/01/28 07:57:52;;;;;;;16.10;8.23;;;1.80;99.90;;;;;;5047411;28;20608;-73
2022/01/28 08:00:17;;;;;;;12.67;7.60;;;2.10;99.90;;;;;;5040486;28;20190;-74
2022/01/28 08:02:43;;;;;;;13.07;7.47;;;2.20;99.90;;;;;;5049533;28;20179;-74
2022/01/28 08:05:10;;;;;;;12.53;7.40;;;2.20;99.90;;;;;;5040085;28;20207;-74
2022/01/28 08:07:36;;;;;;;14.23;7.60;;;2.20;99.90;;;;;;5050138;28;20183;-74
2022/01/28 08:10:02;;;;;;;13.30;7.40;;;2.30;99.90;;;;;;5050494;28;20225;-74
2022/01/28 08:12:27;;;;;;;10.83;7.27;;;2.30;99.90;;;;;;5051450;28;20198;-74
2022/01/28 08:14:53;;;;;;;12.37;7.70;;;2.30;99.90;;;;;;5050334;28;20229;-73
2022/01/28 08:17:18;;;;;;;12.03;7.13;;;2.30;99.90;;;;;;5050001;28;20179;-74
2022/01/28 08:19:44;;;;;;;14.07;8.03;;;2.40;99.90;;;;;;5050401;28;20190;-74
2022/01/28 08:22:10;;;;;;;12.60;8.60;;;2.40;99.90;;;;;;5049202;28;20175;-74
2022/01/28 08:24:35;;;;;;;12.60;7.10;;;2.50;99.90;;;;;;5050025;28;20195;-73
2022/01/28 08:27:01;;;;;;;11.93;7.47;;;2.60;99.90;;;;;;5052252;28;20244;-74
2022/01/28 08:29:27;;;;;;;9.70;7.07;;;2.60;99.90;;;;;;5053884;28;20215;-75
2022/01/28 08:31:52;;;;;;;12.00;7.30;;;2.70;99.90;;;;;;5054148;28;20590;-74
2022/01/28 08:34:18;;;;;;;10.57;7.13;;;2.90;99.90;;;;;;5053121;28;20210;-74
2022/01/28 08:36:44;;;;;;;11.13;7.67;;;3.00;53.50;;;;;;5053111;28;20253;-73
2022/01/28 08:39:10;;;;;;;12.17;7.70;;;2.90;43.10;;;;;;5053359;28;20182;-74
2022/01/28 08:41:39;;;;;;;12.73;7.23;;;2.90;56.40;;;;;;5035392;28;20187;-73
2022/01/28 08:44:05;;;;;;;25.53;14.00;;;2.90;62.30;;;;;;5053618;28;20178;-76
2022/01/28 08:46:30;;;;;;;12.50;9.10;;;3.00;65.30;;;;;;5053011;28;20191;-74
2022/01/28 08:48:56;;;;;;;12.23;7.20;;;3.10;69.30;;;;;;5053632;28;20301;-76
2022/01/28 08:51:21;;;;;;;10.27;6.57;;;3.10;1.00;;;;;;5053929;28;20178;-73
2022/01/28 08:53:47;;;;;;;11.97;7.23;;;3.30;1.00;;;;;;5052139;28;20179;-73
2022/01/28 08:56:13;;;;;;;15.30;6.93;;;3.40;1.00;;;;;;5053166;28;20203;-77
2022/01/28 08:58:38;;;;;;;11.83;6.77;;;3.40;1.00;;;;;;5053572;28;20187;-77
2022/01/28 09:01:04;;;;;;;13.83;7.00;;;3.50;1.00;;;;;;5053488;28;20175;-74
2022/01/28 09:03:30;;;;;;;9.60;6.37;;;3.60;1.00;;;;;;5052831;28;20183;-74
2022/01/28 09:05:56;;;;;;;11.13;6.93;;;3.60;1.00;;;;;;5052250;28;20928;-76
2022/01/28 09:08:22;;;;;;;9.53;6.57;;;3.60;1.00;;;;;;5053575;28;20270;-76
2022/01/28 09:10:57;;;;;;;8.47;6.00;;;3.70;1.00;;;;;;5052910;28;20279;-75
2022/01/28 09:13:37;;;;;;;8.57;6.17;;;3.80;1.00;;;;;;5050867;28;20167;-75
2022/01/28 09:16:03;;;;;;;10.50;6.00;;;3.80;1.00;;;;;;5043801;28;20202;-74
2022/01/28 09:18:29;;;;;;;12.30;6.97;;;3.80;1.00;;;;;;5053492;28;20237;-75
2022/01/28 09:20:55;;;;;;;12.03;7.93;;;3.90;1.00;;;;;;5052645;28;20415;-76
2022/01/28 09:23:21;;;;;;;9.53;6.20;;;4.00;1.00;;;;;;5053424;28;20175;-75
2022/01/28 09:25:46;;;;;;;11.07;6.33;;;3.90;1.00;;;;;;5052832;28;20187;-74
2022/01/28 09:28:12;;;;;;;11.00;6.17;;;4.00;1.00;;;;;;5053233;28;20175;-75
2022/01/28 09:30:38;;;;;;;10.97;6.33;;;4.10;1.00;;;;;;5053296;28;20244;-75
2022/01/28 09:33:04;;;;;;;10.40;5.77;;;4.30;1.00;;;;;;5053132;28;20633;-75
2022/01/28 09:35:30;;;;;;;10.43;5.80;;;4.60;1.00;;;;;;5052656;28;20644;-74
2022/01/28 09:37:55;;;;;;;11.53;5.80;;;4.90;1.00;;;;;;5052260;28;20228;-76
2022/01/28 09:40:21;;;;;;;8.50;4.77;;;5.40;90.90;;;;;;5053298;28;20300;-75
2022/01/28 09:42:48;;;;;;;7.20;5.20;;;5.90;99.90;;;;;;5053165;28;20822;-76
2022/01/28 09:45:16;;;;;;;9.27;5.03;;;6.00;99.90;;;;;;5052483;28;20202;-76
2022/01/28 09:47:46;;;;;;;7.27;4.67;;;5.70;1.00;;;;;;5052907;28;20615;-76
2022/01/28 09:50:12;;;;;;;9.07;5.10;;;6.60;99.90;;;;;;5051413;28;20214;-74
2022/01/28 09:52:37;;;;;;;8.30;4.43;;;7.70;1.00;;;;;;5052634;28;20171;-75
2022/01/28 09:55:03;;;;;;;8.83;4.40;;;8.20;1.00;;;;;;5049182;28;20217;-75
2022/01/28 09:57:29;;;;;;;6.80;4.47;;;9.20;99.90;;;;;;5052257;28;20175;-75
2022/01/28 09:59:54;;;;;;;8.57;4.37;;;10.30;99.90;;;;;;5051688;28;20182;-75
2022/01/28 10:02:41;;;;;;;7.77;4.30;;;11.70;17.90;;;;;;5051970;28;20224;-75
2022/01/28 10:05:18;;;;;;;8.57;4.10;;;11.80;1.00;;;;;;5031710;28;20215;-75
2022/01/28 10:08:05;;;;;;;5.40;3.57;;;11.90;1.00;;;;;;5032963;28;20241;-76
2022/01/28 10:10:59;;;;;;;5.57;3.80;;;12.40;1.00;;;;;;5032536;28;20191;-75
2022/01/28 10:13:32;;;;;;;6.83;4.17;;;11.30;1.00;;;;;;5032676;28;20183;-76
2022/01/28 10:16:08;;;;;;;6.17;4.43;;;12.00;1.00;;;;;;5032102;28;20203;-73
2022/01/28 10:18:42;;;;;;;7.20;3.90;;;11.30;1.00;;;;;;5032245;28;20313;-75
2022/01/28 10:21:32;;;;;;;6.13;3.57;;;10.40;1.00;;;;;;5032276;28;20176;-74
2022/01/28 10:24:08;;;;;;;7.70;4.27;;;9.30;99.90;;;;;;5032325;28;20649;-74
2022/01/28 10:26:49;;;;;;;6.07;3.70;;;8.80;99.90;;;;;;5032368;28;20206;-75
2022/01/28 10:29:25;;;;;;;7.10;3.63;;;8.80;1.00;;;;;;5031763;28;20211;-73
2022/01/28 10:31:55;;;;;;;6.57;3.40;;;8.40;99.90;;;;;;5032323;28;20175;-75
2022/01/28 10:34:22;;;;;;;8.00;3.30;;;7.80;1.00;;;;;;5031672;28;20172;-74
2022/01/28 10:36:49;;;;;;;7.70;3.23;;;7.50;1.00;;;;;;5031733;28;20196;-75
2022/01/28 10:39:22;;;;;;;6.00;2.57;;;7.50;99.90;;;;;;5032039;28;20259;-73
2022/01/28 10:41:51;;;;;;;7.40;3.27;;;7.30;99.90;;;;;;5031758;28;20179;-75
2022/01/28 10:44:17;;;;;;;4.23;2.50;;;7.30;1.00;;;;;;5031925;28;20167;-75
2022/01/28 10:46:50;;;;;;;7.00;2.70;;;7.10;1.00;;;;;;5031378;28;20488;-73
2022/01/28 10:49:16;;;;;;;10.63;3.10;;;6.90;99.90;;;;;;5031555;28;20230;-74
2022/01/28 10:51:44;;;;;;;9.00;2.70;;;6.90;99.90;;;;;;5031900;28;20171;-74
2022/01/28 10:54:20;;;;;;;7.50;2.70;;;6.60;99.90;;;;;;5031595;28;20218;-75
2022/01/28 10:56:51;;;;;;;7.73;2.63;;;6.80;1.00;;;;;;5031863;28;20202;-72
2022/01/28 10:59:20;;;;;;;8.87;2.60;;;6.90;1.00;;;;;;5031880;28;20168;-74
2022/01/28 11:01:47;;;;;;;4.77;2.40;;;7.10;99.90;;;;;;5031662;28;20178;-73
2022/01/28 11:04:14;;;;;;;6.27;2.50;;;7.70;1.00;;;;;;5031222;28;20254;-75
2022/01/28 11:06:42;;;;;;;13.57;3.03;;;8.40;99.90;;;;;;5030326;28;20613;-74
2022/01/28 11:09:09;;;;;;;8.43;2.90;;;8.10;99.90;;;;;;5030669;28;20223;-71
2022/01/28 11:11:36;;;;;;;5.40;2.33;;;7.90;99.90;;;;;;5030702;28;20171;-74
2022/01/28 11:14:02;;;;;;;8.33;3.03;;;8.10;99.90;;;;;;5030937;28;20180;-75
2022/01/28 11:16:28;;;;;;;6.50;2.43;;;7.50;99.90;;;;;;5030046;28;20691;-72
2022/01/28 11:18:55;;;;;;;6.20;2.73;;;7.30;1.00;;;;;;5031084;28;20183;-73
2022/01/28 11:21:34;;;;;;;4.17;2.50;;;7.10;99.90;;;;;;5030594;28;20176;-72
2022/01/28 11:24:21;;;;;;;6.20;2.27;;;6.80;99.90;;;;;;5039992;28;20179;-76
2022/01/28 11:27:10;;;;;;;4.60;2.10;;;6.90;99.90;;;;;;5048389;28;20191;-72
2022/01/28 11:29:36;;;;;;;7.95;2.85;;;6.90;99.90;;;;;;5049228;28;20471;-73
2022/01/28 11:32:14;;;;;;;5.87;2.60;;;6.90;1.00;;;;;;5050402;28;20171;-74
2022/01/28 11:34:56;;;;;;;6.30;2.07;;;6.80;1.00;;;;;;5048672;28;20285;-71
2022/01/28 11:37:32;;;;;;;4.50;1.70;;;6.70;1.00;;;;;;5050510;28;20381;-74
2022/01/28 11:40:08;;;;;;;5.70;2.00;;;6.70;99.90;;;;;;5049017;28;20729;-73
2022/01/28 11:42:34;;;;;;;6.67;2.00;;;6.70;1.00;;;;;;5050095;28;20240;-74
2022/01/28 11:45:04;;;;;;;6.53;2.40;;;6.50;1.00;;;;;;5049302;28;20172;-73
2022/01/28 11:47:30;;;;;;;3.67;2.00;;;7.30;1.00;;;;;;5049263;28;20179;-73
2022/01/28 11:50:04;;;;;;;5.47;2.20;;;9.50;1.00;;;;;;5050164;28;20203;-72
2022/01/28 11:52:32;;;;;;;5.23;2.23;;;10.60;1.00;;;;;;5030001;28;20180;-72
2022/01/28 11:55:16;;;;;;;3.40;2.13;;;9.10;1.00;;;;;;5029669;28;20176;-72
2022/01/28 11:57:57;;;;;;;5.27;2.27;;;9.50;1.00;;;;;;5030451;28;20203;-76
2022/01/28 12:00:23;;;;;;;6.97;2.23;;;8.40;94.00;;;;;;5030390;28;20341;-76
2022/01/28 12:02:51;;;;;;;4.27;1.80;;;7.60;99.90;;;;;;5041644;28;20225;-77
2022/01/28 12:05:28;;;;;;;9.43;2.30;;;7.00;1.00;;;;;;5018605;28;1016299;-76
2022/01/28 12:07:55;;;;;;;6.73;2.37;;;6.70;1.00;;;;;;5055586;28;20752;-75
2022/01/28 12:10:24;;;;;;;3.77;2.33;;;6.70;1.00;;;;;;5054955;28;20241;-77
2022/01/28 12:13:04;;;;;;;3.27;2.07;;;6.90;99.90;;;;;;5054748;28;20644;-75
2022/01/28 12:15:32;;;;;;;8.53;2.70;;;7.60;1.00;;;;;;5054213;28;20206;-75
2022/01/28 12:18:10;;;;;;;8.40;2.53;;;9.20;99.90;;;;;;5054785;28;20172;-78
2022/01/28 12:20:41;;;;;;;6.33;1.90;;;7.90;99.90;;;;;;5054918;28;20183;-76
2022/01/28 12:23:10;;;;;;;4.50;2.47;;;7.30;1.00;;;;;;5054718;28;20206;-76
2022/01/28 12:25:35;;;;;;;19.60;7.43;;;7.00;1.00;;;;;;5053887;28;20560;-75
2022/01/28 12:28:18;;;;;;;7.07;2.83;;;6.70;99.90;;;;;;5054282;28;20666;-76
2022/01/28 12:30:48;;;;;;;8.03;2.80;;;6.40;99.90;;;;;;5054624;28;20246;-75
2022/01/28 12:33:21;;;;;;;4.23;1.97;;;6.00;1.00;;;;;;5054617;28;20175;-76
2022/01/28 12:35:50;;;;;;;7.70;2.60;;;5.80;1.00;;;;;;5053778;28;20214;-77
2022/01/28 12:38:18;;;;;;;5.63;2.50;;;5.70;99.90;;;;;;5036018;28;20180;-77
2022/01/28 12:40:48;;;;;;;7.60;2.33;;;5.80;1.00;;;;;;5036188;28;20183;-77
2022/01/28 12:43:18;;;;;;;7.87;2.40;;;6.10;1.00;;;;;;5051440;28;20573;-78
2022/01/28 12:45:59;;;;;;;5.63;2.00;;;9.80;92.90;;;;;;5053882;28;20198;-78
2022/01/28 12:48:25;;;;;;;5.47;2.10;;;9.50;1.00;;;;;;5054183;28;20197;-77
2022/01/28 12:50:55;;;;;;;7.47;2.20;;;8.10;45.80;;;;;;5054546;28;20206;-78
2022/01/28 12:53:39;;;;;;;6.03;2.57;;;7.60;99.90;;;;;;5054446;28;20727;-78
2022/01/28 12:56:07;;;;;;;6.80;2.33;;;8.10;99.90;;;;;;5052514;28;20187;-78
2022/01/28 12:58:36;;;;;;;6.93;2.40;;;7.20;99.90;;;;;;5053790;28;20171;-80
2022/01/28 13:01:07;;;;;;;8.93;2.70;;;6.70;1.00;;;;;;5053924;28;20171;-78
2022/01/28 13:03:38;;;;;;;7.80;3.03;;;6.90;1.00;;;;;;5035510;28;20232;-77
2022/01/28 13:08:24;;;;;;;7.63;2.37;;;6.40;99.90;;;;;;5049800;28;20203;-77
2022/01/28 13:09:11;;;;;;;6.80;2.43;;;6.20;99.90;;;;;;5034003;28;20227;-78
2022/01/28 13:11:44;;;;;;;7.00;2.77;;;6.10;99.90;;;;;;5053940;28;20175;-78
2022/01/28 13:14:11;;;;;;;4.67;2.60;;;6.10;99.90;;;;;;5055147;28;20274;-78
2022/01/28 13:16:42;;;;;;;7.93;2.83;;;6.10;1.00;;;;;;5055824;28;20190;-78
2022/01/28 13:19:11;;;;;;;5.63;2.90;;;6.10;99.90;;;;;;5053552;28;20183;-80
2022/01/28 13:21:37;;;;;;;5.87;2.93;;;5.80;99.90;;;;;;5055921;28;20179;-78
2022/01/28 13:24:13;;;;;;;11.47;3.87;;;5.70;99.90;;;;;;5055572;28;20233;-78
2022/01/28 13:26:52;;;;;;;7.97;3.30;;;5.60;99.90;;;;;;5055150;28;20214;-78
2022/01/28 13:29:29;;;;;;;9.33;3.80;;;5.60;1.00;;;;;;5054410;28;20218;-78
2022/01/28 13:31:57;;;;;;;12.40;4.00;;;5.70;1.00;;;;;;5053683;28;20250;-78
2022/01/28 13:34:22;;;;;;;4.57;3.03;;;5.50;99.90;;;;;;5054575;28;20175;-78
2022/01/28 13:36:50;;;;;;;5.53;3.33;;;5.40;99.90;;;;;;5054867;28;20195;-78
2022/01/28 13:39:25;;;;;;;8.33;3.63;;;5.30;1.00;;;;;;5054516;28;20183;-80
2022/01/28 13:44:30;;;;;;;7.87;3.67;;;5.70;99.90;;;;;;5055069;28;20203;-81
2022/01/28 13:47:02;;;;;;;7.00;3.40;;;5.60;1.00;;;;;;5040230;28;20567;-81
2022/01/28 13:49:29;;;;;;;6.13;3.77;;;5.50;99.90;;;;;;5058901;28;20235;-79
2022/01/28 13:52:15;;;;;;;6.80;3.43;;;5.50;99.90;;;;;;5059012;28;20175;-80
2022/01/28 13:54:40;;;;;;;8.50;3.67;;;5.40;1.00;;;;;;5057990;28;20171;-79
2022/01/28 13:57:08;;;;;;;5.43;3.30;;;5.40;1.00;;;;;;5058440;28;20202;-78
2022/01/28 13:59:35;;;;;;;6.30;3.50;;;5.40;1.00;;;;;;5054813;28;20179;-78
2022/01/28 14:02:02;;;;;;;9.93;4.00;;;5.30;1.00;;;;;;5054398;28;20175;-79
2022/01/28 14:04:35;;;;;;;8.20;3.60;;;5.30;25.70;;;;;;5055058;28;20177;-83
2022/01/28 14:07:19;;;;;;;7.23;4.23;;;5.40;1.00;;;;;;5057590;28;20268;-79
2022/01/28 14:09:45;;;;;;;7.30;4.20;;;5.70;99.90;;;;;;5057103;28;20207;-80
2022/01/28 14:12:22;;;;;;;8.03;4.10;;;7.60;1.00;;;;;;5056425;28;20179;-79